createdAt,value
2018-09-24T00:00:11.314Z,8.93
2018-09-24T00:02:39.723Z,9.50
2018-09-24T00:05:08.344Z,9.97
2018-09-24T00:07:36.877Z,8.70
2018-09-24T00:10:05.717Z,9.10
2018-09-24T00:12:34.389Z,9.57
2018-09-24T00:15:03.286Z,7.60
2018-09-24T00:17:32.504Z,8.67
2018-09-24T00:20:01.037Z,8.40
2018-09-24T00:22:29.533Z,8.53
2018-09-24T00:24:58.042Z,7.60
2018-09-24T00:27:26.884Z,8.40
2018-09-24T00:29:56.243Z,8.40
2018-09-24T00:32:25.163Z,9.03
2018-09-24T00:34:54.108Z,8.40
2018-09-24T00:37:22.674Z,8.67
2018-09-24T00:39:51.286Z,7.80
2018-09-24T00:42:19.804Z,8.37
2018-09-24T00:44:48.732Z,7.67
2018-09-24T00:47:17.243Z,7.93
2018-09-24T00:49:45.763Z,7.57
2018-09-24T00:52:14.388Z,7.63
2018-09-24T00:54:42.911Z,6.87
2018-09-24T00:57:11.448Z,6.70
2018-09-24T00:59:40.009Z,7.73
2018-09-24T01:02:08.504Z,7.27
2018-09-24T01:04:37.052Z,6.47
2018-09-24T01:07:05.583Z,6.63
2018-09-24T01:09:34.091Z,5.80
2018-09-24T01:12:02.816Z,6.13
2018-09-24T01:14:31.328Z,5.90
2018-09-24T01:16:59.842Z,5.53
2018-09-24T01:19:28.378Z,5.93
2018-09-24T01:21:56.912Z,5.57
2018-09-24T01:24:25.423Z,5.77
2018-09-24T01:26:54.260Z,5.60
2018-09-24T01:29:22.917Z,5.53
2018-09-24T01:31:51.473Z,5.43
2018-09-24T01:34:20.245Z,5.20
2018-09-24T01:36:48.789Z,5.40
2018-09-24T01:39:17.268Z,5.67
2018-09-24T01:41:45.792Z,5.13
2018-09-24T01:44:14.375Z,5.77
2018-09-24T01:46:42.881Z,4.63
2018-09-24T01:49:11.373Z,5.27
2018-09-24T01:51:40.017Z,5.63
2018-09-24T01:54:08.927Z,5.97
2018-09-24T01:56:37.467Z,5.40
2018-09-24T01:59:06.167Z,5.77
2018-09-24T02:01:34.686Z,5.97
2018-09-24T02:04:03.468Z,6.03
2018-09-24T02:06:32.236Z,6.10
2018-09-24T02:09:00.793Z,6.47
2018-09-24T02:11:29.293Z,5.67
2018-09-24T02:13:58.160Z,5.40
2018-09-24T02:16:26.838Z,6.00
2018-09-24T02:18:59.812Z,5.60
2018-09-24T02:21:28.791Z,5.63
2018-09-24T02:24:03.145Z,5.30
2018-09-24T02:26:31.755Z,4.83
2018-09-24T02:29:00.445Z,5.70
2018-09-24T02:31:29.099Z,5.83
2018-09-24T02:33:57.817Z,5.47
2018-09-24T02:36:26.388Z,5.47
2018-09-24T02:38:54.927Z,5.33
2018-09-24T02:41:23.419Z,5.47
2018-09-24T02:43:52.127Z,5.40
2018-09-24T02:46:20.642Z,5.50
2018-09-24T02:48:49.176Z,4.57
2018-09-24T02:51:17.774Z,4.90
2018-09-24T02:53:46.384Z,4.10
2018-09-24T02:56:15.019Z,4.43
2018-09-24T02:58:43.511Z,4.97
2018-09-24T03:01:12.546Z,4.60
2018-09-24T03:03:41.017Z,3.53
2018-09-24T03:06:09.558Z,3.77
2018-09-24T03:08:40.526Z,3.97
2018-09-24T03:11:09.055Z,3.80
2018-09-24T03:13:37.556Z,3.53
2018-09-24T03:16:06.087Z,3.90
2018-09-24T03:18:34.696Z,4.10
2018-09-24T03:21:03.172Z,3.47
2018-09-24T03:23:31.720Z,3.83
2018-09-24T03:26:00.483Z,4.00
2018-09-24T03:28:28.987Z,4.73
2018-09-24T03:30:57.510Z,4.13
2018-09-24T03:33:26.022Z,3.33
2018-09-24T03:35:54.545Z,3.60
2018-09-24T03:38:23.200Z,3.80
2018-09-24T03:40:52.163Z,3.70
2018-09-24T03:43:20.723Z,4.27
2018-09-24T03:45:49.364Z,3.63
2018-09-24T03:48:17.853Z,3.63
2018-09-24T03:50:46.463Z,3.60
2018-09-24T03:53:15.003Z,3.80
2018-09-24T03:55:43.526Z,3.37
2018-09-24T03:58:12.243Z,3.30
2018-09-24T04:00:40.746Z,3.07
2018-09-24T04:03:09.276Z,3.40
2018-09-24T04:05:43.072Z,3.67
2018-09-24T04:08:17.101Z,3.67
2018-09-24T04:10:51.175Z,3.90
2018-09-24T04:13:25.167Z,3.77
2018-09-24T04:15:59.225Z,4.50
2018-09-24T04:18:33.065Z,4.63
2018-09-24T04:21:06.989Z,5.07
2018-09-24T04:23:40.835Z,4.60
2018-09-24T04:26:14.580Z,4.87
2018-09-24T04:28:48.635Z,4.60
2018-09-24T04:31:22.397Z,5.07
2018-09-24T04:33:56.191Z,4.77
2018-09-24T04:36:29.934Z,5.30
2018-09-24T04:39:03.726Z,5.07
2018-09-24T04:41:37.680Z,5.37
2018-09-24T04:44:11.529Z,4.77
2018-09-24T04:46:45.360Z,5.10
2018-09-24T04:49:19.151Z,4.60
2018-09-24T04:51:52.824Z,4.90
2018-09-24T04:54:26.746Z,5.33
2018-09-24T04:57:00.452Z,6.03
2018-09-24T04:59:34.270Z,5.33
2018-09-24T05:02:07.951Z,5.03
2018-09-24T05:04:42.183Z,4.70
2018-09-24T05:07:16.102Z,4.87
2018-09-24T05:09:50.054Z,4.80
2018-09-24T05:12:23.874Z,5.13
2018-09-24T05:14:57.823Z,6.00
2018-09-24T05:17:31.650Z,4.90
2018-09-24T05:20:05.601Z,5.10
2018-09-24T05:22:39.405Z,5.00
2018-09-24T05:25:13.447Z,5.23
2018-09-24T05:27:47.132Z,5.57
2018-09-24T05:30:21.027Z,5.23
2018-09-24T05:32:54.965Z,6.43
2018-09-24T05:35:28.890Z,6.20
2018-09-24T05:38:02.770Z,6.90
2018-09-24T05:40:36.516Z,6.90
2018-09-24T05:43:10.512Z,6.60
2018-09-24T05:45:44.393Z,6.50
2018-09-24T05:48:18.131Z,6.30
2018-09-24T05:50:52.048Z,6.13
2018-09-24T05:53:26.194Z,6.43
2018-09-24T05:55:59.992Z,5.73
2018-09-24T05:58:34.221Z,6.10
2018-09-24T06:01:07.916Z,6.30
2018-09-24T06:03:41.776Z,6.03
2018-09-24T06:06:15.596Z,6.23
2018-09-24T06:08:49.431Z,6.03
2018-09-24T06:11:23.100Z,5.70
2018-09-24T06:13:56.828Z,6.47
2018-09-24T06:16:30.919Z,6.27
2018-09-24T06:19:04.856Z,5.90
2018-09-24T06:21:38.631Z,5.33
2018-09-24T06:24:12.745Z,5.73
2018-09-24T06:26:46.657Z,4.80
2018-09-24T06:29:20.442Z,5.00
2018-09-24T06:31:54.289Z,4.93
2018-09-24T06:34:28.129Z,5.10
2018-09-24T06:37:01.931Z,5.40
2018-09-24T06:39:35.898Z,5.27
2018-09-24T06:42:09.697Z,4.27
2018-09-24T06:44:43.454Z,5.00
2018-09-24T06:47:17.360Z,3.97
2018-09-24T06:49:51.439Z,4.37
2018-09-24T06:52:25.250Z,4.07
2018-09-24T06:54:59.043Z,4.40
2018-09-24T06:57:33.122Z,4.73
2018-09-24T07:00:07.159Z,3.90
2018-09-24T07:02:40.827Z,4.50
2018-09-24T07:05:14.544Z,3.90
2018-09-24T07:07:48.305Z,4.40
2018-09-24T07:10:22.254Z,4.70
2018-09-24T07:12:56.361Z,4.07
2018-09-24T07:15:30.394Z,4.37
2018-09-24T07:18:04.091Z,4.07
2018-09-24T07:20:38.420Z,4.27
2018-09-24T07:23:12.630Z,3.80
2018-09-24T07:25:46.692Z,3.50
2018-09-24T07:28:20.542Z,3.60
2018-09-24T07:30:54.422Z,3.20
2018-09-24T07:33:28.335Z,3.00
2018-09-24T07:36:02.149Z,3.73
2018-09-24T07:38:35.907Z,3.27
2018-09-24T07:41:09.728Z,3.30
2018-09-24T07:43:43.533Z,3.10
2018-09-24T07:46:17.305Z,2.90
2018-09-24T07:48:51.244Z,3.20
2018-09-24T07:51:25.287Z,3.13
2018-09-24T07:53:59.167Z,3.03
2018-09-24T07:56:33.071Z,2.93
2018-09-24T07:59:07.102Z,3.60
2018-09-24T08:01:40.856Z,3.43
2018-09-24T08:04:14.862Z,3.30
2018-09-24T08:06:48.748Z,3.30
2018-09-24T08:09:22.563Z,3.07
2018-09-24T08:11:56.562Z,3.60
2018-09-24T08:14:30.735Z,3.10
2018-09-24T08:17:04.370Z,2.73
2018-09-24T08:19:38.669Z,2.40
2018-09-24T08:22:12.578Z,2.27
2018-09-24T08:24:46.450Z,2.30
2018-09-24T08:27:20.261Z,2.30
2018-09-24T08:29:54.094Z,2.77
2018-09-24T08:32:28.020Z,1.87
2018-09-24T08:35:01.683Z,2.20
2018-09-24T08:37:35.572Z,2.63
2018-09-24T08:40:09.452Z,1.57
2018-09-24T08:42:43.330Z,2.13
2018-09-24T08:45:17.056Z,1.80
2018-09-24T08:47:51.022Z,2.10
2018-09-24T08:50:24.908Z,2.13
2018-09-24T08:52:58.736Z,1.60
2018-09-24T08:55:32.566Z,2.00
2018-09-24T08:58:06.687Z,2.00
2018-09-24T09:00:40.461Z,1.67
2018-09-24T09:03:14.286Z,1.70
2018-09-24T09:05:48.369Z,1.40
2018-09-24T09:08:22.514Z,1.90
2018-09-24T09:10:56.248Z,1.80
2018-09-24T09:13:30.071Z,1.53
2018-09-24T09:16:04.105Z,1.53
2018-09-24T09:18:38.143Z,1.53
2018-09-24T09:21:12.061Z,1.80
2018-09-24T09:23:45.682Z,1.60
2018-09-24T09:26:19.520Z,2.00
2018-09-24T09:28:53.358Z,1.80
2018-09-24T09:31:27.251Z,1.43
2018-09-24T09:34:01.391Z,1.37
2018-09-24T09:36:35.376Z,1.23
2018-09-24T09:39:10.009Z,2.40
2018-09-24T09:41:43.852Z,1.50
2018-09-24T09:44:17.661Z,1.73
2018-09-24T09:46:51.624Z,1.73
2018-09-24T09:49:25.420Z,1.40
2018-09-24T09:51:59.290Z,1.60
2018-09-24T09:54:33.502Z,1.40
2018-09-24T09:57:07.377Z,1.63
2018-09-24T09:59:41.178Z,1.60
2018-09-24T10:02:15.002Z,1.50
2018-09-24T10:04:49.123Z,1.40
2018-09-24T10:07:22.840Z,1.10
2018-09-24T10:09:56.610Z,1.17
2018-09-24T10:12:30.448Z,1.10
2018-09-24T10:15:04.383Z,1.37
2018-09-24T10:17:38.688Z,1.47
2018-09-24T10:20:12.627Z,1.10
2018-09-24T10:22:46.818Z,1.50
2018-09-24T10:25:20.801Z,1.20
2018-09-24T10:27:54.681Z,1.73
2018-09-24T10:30:28.764Z,1.20
2018-09-24T10:33:02.459Z,1.10
2018-09-24T10:35:36.375Z,1.23
2018-09-24T10:38:10.460Z,1.40
2018-09-24T10:40:44.396Z,1.70
2018-09-24T10:43:18.249Z,1.33
2018-09-24T10:45:52.346Z,1.30
2018-09-24T10:48:26.020Z,1.10
2018-09-24T10:50:59.932Z,1.07
2018-09-24T10:53:33.782Z,1.40
2018-09-24T10:56:07.555Z,1.10
2018-09-24T10:58:41.879Z,0.77
2018-09-24T11:01:15.643Z,1.13
2018-09-24T11:03:49.516Z,1.63
2018-09-24T11:06:24.498Z,1.10
2018-09-24T11:08:58.497Z,1.47
2018-09-24T11:11:32.338Z,0.93
2018-09-24T11:14:06.066Z,1.17
2018-09-24T11:16:40.165Z,1.10
2018-09-24T11:19:13.890Z,1.13
2018-09-24T11:21:47.542Z,1.07
2018-09-24T11:24:21.895Z,1.30
2018-09-24T11:26:55.668Z,0.93
2018-09-24T11:29:29.419Z,1.47
2018-09-24T11:32:03.346Z,1.27
2018-09-24T11:34:37.245Z,1.37
2018-09-24T11:37:11.194Z,1.60
2018-09-24T11:39:45.094Z,1.17
2018-09-24T11:42:19.103Z,0.93
2018-09-24T11:44:54.173Z,1.10
2018-09-24T11:47:27.992Z,0.97
2018-09-24T11:50:02.256Z,1.30
2018-09-24T11:52:36.200Z,1.30
2018-09-24T11:55:10.060Z,1.43
2018-09-24T11:57:44.055Z,1.10
2018-09-24T12:00:17.840Z,1.33
2018-09-24T12:02:51.652Z,1.40
2018-09-24T12:05:25.436Z,1.30
2018-09-24T12:07:59.344Z,1.40
2018-09-24T12:10:33.187Z,1.43
2018-09-24T12:13:07.074Z,1.10
2018-09-24T12:15:40.922Z,1.40
2018-09-24T12:18:14.729Z,1.27
2018-09-24T12:20:48.823Z,1.13
2018-09-24T12:23:22.658Z,1.40
2018-09-24T12:25:56.480Z,1.13
2018-09-24T12:28:30.368Z,1.00
2018-09-24T12:31:04.414Z,1.40
2018-09-24T12:33:38.257Z,1.10
2018-09-24T12:36:11.926Z,1.20
2018-09-24T12:38:46.023Z,1.10
2018-09-24T12:41:20.193Z,1.00
2018-09-24T12:43:54.377Z,1.10
2018-09-24T12:46:28.618Z,1.10
2018-09-24T12:49:02.503Z,0.90
2018-09-24T12:51:36.639Z,1.03
2018-09-24T12:54:10.594Z,0.93
2018-09-24T12:56:44.511Z,0.73
2018-09-24T12:59:18.431Z,0.63
2018-09-24T13:01:52.424Z,0.73
2018-09-24T13:04:26.281Z,0.90
2018-09-24T13:07:00.131Z,0.77
2018-09-24T13:09:34.244Z,1.03
2018-09-24T13:12:08.511Z,0.80
2018-09-24T13:14:42.548Z,0.70
2018-09-24T13:17:16.738Z,0.43
2018-09-24T13:19:50.768Z,0.80
2018-09-24T13:22:24.453Z,1.00
2018-09-24T13:24:58.227Z,0.53
2018-09-24T13:27:32.019Z,0.40
2018-09-24T13:30:06.146Z,0.60
2018-09-24T13:32:39.864Z,0.50
2018-09-24T13:35:13.688Z,0.80
2018-09-24T13:37:47.523Z,0.50
2018-09-24T13:40:21.487Z,0.90
2018-09-24T13:42:55.397Z,0.60
2018-09-24T13:45:29.396Z,0.80
2018-09-24T13:48:03.244Z,0.83
2018-09-24T13:50:37.074Z,0.60
2018-09-24T13:53:11.039Z,0.50
2018-09-24T13:55:45.180Z,0.73
2018-09-24T13:58:18.970Z,0.80
2018-09-24T14:00:52.950Z,0.80
2018-09-24T14:03:26.747Z,0.90
2018-09-24T14:06:00.756Z,0.57
2018-09-24T14:08:34.607Z,0.73
2018-09-24T14:11:08.559Z,0.70
2018-09-24T14:13:42.576Z,0.50
2018-09-24T14:16:16.582Z,0.50
2018-09-24T14:18:50.498Z,0.80
2018-09-24T14:21:31.238Z,1.00
2018-09-24T14:24:05.209Z,0.90
2018-09-24T14:26:39.353Z,1.10
2018-09-24T14:29:13.217Z,1.30
2018-09-24T14:31:47.637Z,0.90
2018-09-24T14:34:21.600Z,0.97
2018-09-24T14:36:55.633Z,0.97
2018-09-24T14:39:29.669Z,0.60
2018-09-24T14:42:03.640Z,0.90
2018-09-24T14:44:37.744Z,0.70
2018-09-24T14:47:11.696Z,0.90
2018-09-24T14:49:45.450Z,0.87
2018-09-24T14:52:19.447Z,1.07
2018-09-24T14:54:53.356Z,1.40
2018-09-24T14:57:27.289Z,1.00
2018-09-24T15:00:01.158Z,1.07
2018-09-24T15:02:35.070Z,0.80
2018-09-24T15:05:08.887Z,0.90
2018-09-24T15:07:42.756Z,1.10
2018-09-24T15:10:16.854Z,1.07
2018-09-24T15:12:50.943Z,1.00
2018-09-24T15:15:25.088Z,0.80
2018-09-24T15:17:59.251Z,1.00
2018-09-24T15:20:33.535Z,1.23
2018-09-24T15:23:07.516Z,0.90
2018-09-24T15:25:41.500Z,1.15
2018-09-24T15:28:15.392Z,1.27
2018-09-24T15:30:49.314Z,0.90
2018-09-24T15:33:23.442Z,0.85
2018-09-24T15:35:57.241Z,0.93
2018-09-24T15:38:31.559Z,0.98
2018-09-24T15:41:05.657Z,0.85
2018-09-24T15:43:39.754Z,0.80
2018-09-24T15:46:13.913Z,0.90
2018-09-24T15:48:47.918Z,1.32
2018-09-24T15:51:21.996Z,1.17
2018-09-24T15:53:55.840Z,1.17
2018-09-24T15:56:29.756Z,1.20
2018-09-24T15:59:03.780Z,1.20
2018-09-24T16:01:38.051Z,1.30
2018-09-24T16:04:11.972Z,1.30
2018-09-24T16:06:45.981Z,1.07
2018-09-24T16:09:20.216Z,0.80
2018-09-24T16:11:54.177Z,1.10
2018-09-24T16:14:28.298Z,0.70
2018-09-24T16:17:02.592Z,0.87
2018-09-24T16:19:36.657Z,1.17
2018-09-24T16:22:12.022Z,0.70
2018-09-24T16:33:25.773Z,1.10
2018-09-24T16:38:53.512Z,1.17
2018-09-24T16:44:20.935Z,1.30
2018-09-24T17:36:01.057Z,4.90
